Newberry, Florida
Current Conditions -  °F | °C
As of 11:53 AM on Thursday 27 Nov 2014 (Local Time) from KGNV Reporting Station
Clear Clear  
Wind Chill: 62°   Ceiling: Unl
Heat Index: 62°   Visibility: 10mi
Dew Point: 38°   Wind: 13mph
Humidity: 41%   Direction: 330°NNW
Pressure: 30.25"   Gusts: NA
Location:  29.65°N, 82.61°W
Report Text: KGNV 271653Z 33011KT 10SM CLR 17/03 A3025 RMK AO2 SLP246 T01670033
Loading
Personal Weather Stations






























Interactive Weather Map New forecast layout! Learn more

10-Day Weather Forecast

Advertisements
Track Severe Weather on mobile